SCX506 KMSP-KSTL
Flight info
| Callsign | SCX506 |
|---|---|
| Flight time | 0h 58m |
| Altitude | 35000 |
| Route | KMSP RST1 ALO GUZIK LORLE3 KSTL |
| Aircraft | B738/M-VGDW/C |
Departure
| Time | 2026-05-05 03:29 |
|---|---|
| Airport | Minneapolis–Saint Paul International Airport / Wold–Chamberlain Field (KMSP) |
Arrival
| Time | 2026-05-05 04:27 |
|---|---|
| Airport | St. Louis Lambert International Airport (KSTL) |
| Time | Latitude | Longitude | Altitude | Speed | Heading |
|---|---|---|---|---|---|
| 2026-05-05 03:05 | 44.87466 | -93.22880 | 830 ft | 0 kts | 135° |
| 2026-05-05 03:17 | 44.87473 | -93.22890 | 830 ft | 2 kts | 135° |
| 2026-05-05 03:18 | 44.87482 | -93.22903 | 830 ft | 0 kts | 135° |
| 2026-05-05 03:18 | 44.87490 | -93.22916 | 829 ft | 2 kts | 122° |
| 2026-05-05 03:18 | 44.87497 | -93.22935 | 829 ft | 2 kts | 105° |
| 2026-05-05 03:18 | 44.87499 | -93.22955 | 828 ft | 2 kts | 88° |
| 2026-05-05 03:19 | 44.87490 | -93.22996 | 828 ft | 2 kts | 55° |
| 2026-05-05 03:19 | 44.87485 | -93.23005 | 828 ft | 1 kts | 45° |
| 2026-05-05 03:19 | 44.87482 | -93.23010 | 828 ft | 0 kts | 45° |
| 2026-05-05 03:22 | 44.87490 | -93.23000 | 828 ft | 4 kts | 32° |
| 2026-05-05 03:23 | 44.87550 | -93.22955 | 829 ft | 15 kts | 35° |
| 2026-05-05 03:23 | 44.87636 | -93.22845 | 831 ft | 16 kts | 45° |
| 2026-05-05 03:23 | 44.87713 | -93.22738 | 831 ft | 15 kts | 45° |
| 2026-05-05 03:23 | 44.87786 | -93.22635 | 831 ft | 14 kts | 44° |
| 2026-05-05 03:24 | 44.87864 | -93.22531 | 831 ft | 16 kts | 43° |
| 2026-05-05 03:24 | 44.87946 | -93.22420 | 831 ft | 16 kts | 59° |
| 2026-05-05 03:24 | 44.88020 | -93.22298 | 830 ft | 16 kts | 46° |
| 2026-05-05 03:24 | 44.88093 | -93.22167 | 828 ft | 17 kts | 82° |
| 2026-05-05 03:25 | 44.88047 | -93.22019 | 828 ft | 16 kts | 122° |
| 2026-05-05 03:25 | 44.87985 | -93.21876 | 825 ft | 18 kts | 121° |
| 2026-05-05 03:25 | 44.87919 | -93.21722 | 824 ft | 18 kts | 121° |
| 2026-05-05 03:25 | 44.87854 | -93.21568 | 824 ft | 17 kts | 120° |
| 2026-05-05 03:26 | 44.87790 | -93.21421 | 823 ft | 18 kts | 122° |
| 2026-05-05 03:26 | 44.87720 | -93.21266 | 821 ft | 18 kts | 121° |
| 2026-05-05 03:26 | 44.87649 | -93.21101 | 820 ft | 20 kts | 121° |
| 2026-05-05 03:26 | 44.87573 | -93.20925 | 816 ft | 21 kts | 122° |
| 2026-05-05 03:27 | 44.87487 | -93.20741 | 812 ft | 23 kts | 131° |
| 2026-05-05 03:27 | 44.87365 | -93.20587 | 807 ft | 24 kts | 126° |
| 2026-05-05 03:27 | 44.87280 | -93.20394 | 804 ft | 19 kts | 122° |
| 2026-05-05 03:27 | 44.87243 | -93.20249 | 802 ft | 13 kts | 63° |
| 2026-05-05 03:28 | 44.87303 | -93.20184 | 804 ft | 10 kts | 31° |
| 2026-05-05 03:28 | 44.87375 | -93.20178 | 805 ft | 12 kts | 320° |
| 2026-05-05 03:28 | 44.87442 | -93.20326 | 806 ft | 36 kts | 301° |
| 2026-05-05 03:28 | 44.87757 | -93.21056 | 819 ft | 128 kts | 302° |
| 2026-05-05 03:29 | 44.88300 | -93.22298 | 1030 ft | 163 kts | 302° |
| 2026-05-05 03:29 | 44.88875 | -93.23725 | 1677 ft | 171 kts | 292° |
| 2026-05-05 03:29 | 44.89080 | -93.25365 | 2450 ft | 179 kts | 267° |
| 2026-05-05 03:29 | 44.88503 | -93.26953 | 3166 ft | 199 kts | 230° |
| 2026-05-05 03:30 | 44.87230 | -93.27788 | 3895 ft | 222 kts | 192° |
| 2026-05-05 03:30 | 44.85536 | -93.27504 | 4553 ft | 268 kts | 167° |
| 2026-05-05 03:30 | 44.83763 | -93.26703 | 5106 ft | 278 kts | 159° |
| 2026-05-05 03:30 | 44.81869 | -93.25574 | 5696 ft | 300 kts | 160° |
| 2026-05-05 03:31 | 44.79964 | -93.24425 | 6299 ft | 299 kts | 160° |
| 2026-05-05 03:31 | 44.78069 | -93.23289 | 6912 ft | 300 kts | 161° |
| 2026-05-05 03:31 | 44.76139 | -93.22128 | 7554 ft | 302 kts | 161° |
| 2026-05-05 03:31 | 44.74206 | -93.20972 | 8211 ft | 305 kts | 162° |
| 2026-05-05 03:32 | 44.72245 | -93.19797 | 8873 ft | 309 kts | 162° |
| 2026-05-05 03:32 | 44.70268 | -93.18617 | 9539 ft | 312 kts | 162° |
| 2026-05-05 03:32 | 44.68273 | -93.17423 | 10202 ft | 313 kts | 163° |
| 2026-05-05 03:32 | 44.66248 | -93.16215 | 10869 ft | 318 kts | 163° |
| 2026-05-05 03:33 | 44.64225 | -93.15004 | 11528 ft | 319 kts | 163° |
| 2026-05-05 03:33 | 44.62164 | -93.13776 | 12194 ft | 321 kts | 164° |
| 2026-05-05 03:33 | 44.60112 | -93.12556 | 12847 ft | 323 kts | 164° |
| 2026-05-05 03:33 | 44.58053 | -93.11328 | 13489 ft | 327 kts | 165° |
| 2026-05-05 03:34 | 44.55955 | -93.10080 | 14144 ft | 330 kts | 165° |
| 2026-05-05 03:34 | 44.53821 | -93.08809 | 14808 ft | 334 kts | 166° |
| 2026-05-05 03:34 | 44.51699 | -93.07543 | 15429 ft | 337 kts | 167° |
| 2026-05-05 03:34 | 44.49551 | -93.06271 | 16067 ft | 341 kts | 168° |
| 2026-05-05 03:35 | 44.47371 | -93.04978 | 16713 ft | 343 kts | 168° |
| 2026-05-05 03:35 | 44.45147 | -93.03660 | 17367 ft | 347 kts | 168° |
| 2026-05-05 03:35 | 44.42925 | -93.02349 | 18001 ft | 363 kts | 169° |
| 2026-05-05 03:35 | 44.40509 | -93.00928 | 18662 ft | 391 kts | 169° |
| 2026-05-05 03:36 | 44.37935 | -92.99416 | 19352 ft | 416 kts | 168° |
| 2026-05-05 03:36 | 44.35219 | -92.97813 | 20049 ft | 439 kts | 168° |
| 2026-05-05 03:36 | 44.32316 | -92.96106 | 20737 ft | 462 kts | 167° |
| 2026-05-05 03:36 | 44.29278 | -92.94315 | 21405 ft | 483 kts | 167° |
| 2026-05-05 03:37 | 44.26183 | -92.92484 | 22067 ft | 489 kts | 167° |
| 2026-05-05 03:37 | 44.23042 | -92.90657 | 22710 ft | 496 kts | 163° |
| 2026-05-05 03:37 | 44.19981 | -92.88330 | 23359 ft | 496 kts | 163° |
| 2026-05-05 03:37 | 44.16930 | -92.86146 | 24029 ft | 501 kts | 164° |
| 2026-05-05 03:38 | 44.13770 | -92.83952 | 24711 ft | 511 kts | 164° |
| 2026-05-05 03:38 | 44.10586 | -92.81758 | 25388 ft | 512 kts | 163° |
| 2026-05-05 03:38 | 44.07396 | -92.79568 | 26063 ft | 511 kts | 163° |
| 2026-05-05 03:38 | 44.04234 | -92.77397 | 26737 ft | 508 kts | 163° |
| 2026-05-05 03:39 | 44.01108 | -92.75255 | 27415 ft | 505 kts | 163° |
| 2026-05-05 03:39 | 43.97960 | -92.73100 | 28093 ft | 505 kts | 164° |
| 2026-05-05 03:39 | 43.94825 | -92.70955 | 28767 ft | 504 kts | 164° |
| 2026-05-05 03:39 | 43.91645 | -92.68789 | 29470 ft | 505 kts | 164° |
| 2026-05-05 03:40 | 43.88526 | -92.66660 | 30141 ft | 503 kts | 164° |
| 2026-05-05 03:40 | 43.85405 | -92.64539 | 30826 ft | 502 kts | 164° |
| 2026-05-05 03:40 | 43.82209 | -92.62364 | 31539 ft | 504 kts | 164° |
| 2026-05-05 03:40 | 43.79084 | -92.60332 | 32220 ft | 489 kts | 170° |
| 2026-05-05 03:41 | 43.75802 | -92.59321 | 32919 ft | 466 kts | 184° |
| 2026-05-05 03:41 | 43.72562 | -92.58759 | 33638 ft | 462 kts | 185° |
| 2026-05-05 03:41 | 43.69343 | -92.58227 | 34347 ft | 461 kts | 185° |
| 2026-05-05 03:41 | 43.66137 | -92.57701 | 34756 ft | 465 kts | 185° |
| 2026-05-05 03:42 | 43.59660 | -92.56641 | 34780 ft | 465 kts | 185° |
| 2026-05-05 03:42 | 43.53292 | -92.55596 | 34781 ft | 460 kts | 185° |
| 2026-05-05 03:43 | 43.46929 | -92.54560 | 34777 ft | 467 kts | 184° |
| 2026-05-05 03:43 | 43.40466 | -92.53506 | 34776 ft | 462 kts | 184° |
| 2026-05-05 03:44 | 43.34069 | -92.52467 | 34781 ft | 468 kts | 184° |
| 2026-05-05 03:44 | 43.27617 | -92.51417 | 34782 ft | 463 kts | 184° |
| 2026-05-05 03:45 | 43.21211 | -92.50383 | 34788 ft | 465 kts | 184° |
| 2026-05-05 03:45 | 43.14793 | -92.49347 | 34792 ft | 467 kts | 184° |
| 2026-05-05 03:46 | 43.08350 | -92.48305 | 34792 ft | 466 kts | 184° |
| 2026-05-05 03:46 | 43.01876 | -92.47268 | 34793 ft | 468 kts | 184° |
| 2026-05-05 03:47 | 42.95464 | -92.46239 | 34793 ft | 466 kts | 184° |
| 2026-05-05 03:47 | 42.89000 | -92.45203 | 34791 ft | 470 kts | 183° |
| 2026-05-05 03:48 | 42.82526 | -92.44170 | 34789 ft | 469 kts | 183° |
| 2026-05-05 03:48 | 42.76070 | -92.43137 | 34796 ft | 466 kts | 183° |
| 2026-05-05 03:49 | 42.69635 | -92.42113 | 34796 ft | 467 kts | 183° |
| 2026-05-05 03:49 | 42.63150 | -92.41087 | 34800 ft | 469 kts | 182° |
| 2026-05-05 03:50 | 42.56688 | -92.40060 | 34801 ft | 467 kts | 182° |
| 2026-05-05 03:50 | 42.50258 | -92.38760 | 34815 ft | 476 kts | 178° |
| 2026-05-05 03:51 | 42.43735 | -92.37153 | 34797 ft | 474 kts | 179° |
| 2026-05-05 03:51 | 42.37254 | -92.35645 | 34787 ft | 473 kts | 179° |
| 2026-05-05 03:52 | 42.30724 | -92.34149 | 34778 ft | 488 kts | 179° |
| 2026-05-05 03:52 | 42.27360 | -92.33375 | 34769 ft | 500 kts | 179° |
| 2026-05-05 03:52 | 42.23915 | -92.32584 | 34764 ft | 506 kts | 179° |
| 2026-05-05 03:53 | 42.16914 | -92.30977 | 34768 ft | 509 kts | 179° |
| 2026-05-05 03:53 | 42.09960 | -92.29383 | 34775 ft | 509 kts | 178° |
| 2026-05-05 03:54 | 42.02963 | -92.27791 | 34774 ft | 510 kts | 178° |
| 2026-05-05 03:54 | 41.96011 | -92.26208 | 34777 ft | 510 kts | 178° |
| 2026-05-05 03:55 | 41.89035 | -92.24618 | 34773 ft | 510 kts | 178° |
| 2026-05-05 03:55 | 41.82055 | -92.23038 | 34777 ft | 511 kts | 178° |
| 2026-05-05 03:56 | 41.75024 | -92.21448 | 34780 ft | 511 kts | 178° |
| 2026-05-05 03:56 | 41.68064 | -92.19879 | 34775 ft | 511 kts | 178° |
| 2026-05-05 03:57 | 41.61709 | -92.18449 | 34779 ft | 512 kts | 178° |
| 2026-05-05 03:57 | 41.54693 | -92.16872 | 34780 ft | 514 kts | 178° |
| 2026-05-05 03:58 | 41.47643 | -92.15291 | 34786 ft | 514 kts | 178° |
| 2026-05-05 03:58 | 41.40594 | -92.13716 | 34780 ft | 515 kts | 178° |
| 2026-05-05 03:59 | 41.33565 | -92.12147 | 34779 ft | 515 kts | 178° |
| 2026-05-05 03:59 | 41.26503 | -92.10572 | 34774 ft | 515 kts | 177° |
| 2026-05-05 04:00 | 41.19421 | -92.09002 | 34775 ft | 516 kts | 177° |
| 2026-05-05 04:00 | 41.12369 | -92.07438 | 34774 ft | 516 kts | 177° |
| 2026-05-05 04:01 | 41.05282 | -92.05866 | 34773 ft | 517 kts | 177° |
| 2026-05-05 04:01 | 40.98174 | -92.04298 | 34779 ft | 518 kts | 177° |
| 2026-05-05 04:02 | 40.91075 | -92.02736 | 34784 ft | 517 kts | 177° |
| 2026-05-05 04:02 | 40.83978 | -92.01176 | 34762 ft | 517 kts | 177° |
| 2026-05-05 04:03 | 40.80507 | -92.00015 | 34733 ft | 529 kts | 164° |
| 2026-05-05 04:03 | 40.77223 | -91.97747 | 34781 ft | 538 kts | 154° |
| 2026-05-05 04:03 | 40.74376 | -91.95503 | 34757 ft | 539 kts | 154° |
| 2026-05-05 04:04 | 40.69261 | -91.91459 | 34766 ft | 513 kts | 154° |
| 2026-05-05 04:04 | 40.66230 | -91.89105 | 34760 ft | 500 kts | 155° |
| 2026-05-05 04:04 | 40.63238 | -91.86809 | 34759 ft | 500 kts | 155° |
| 2026-05-05 04:05 | 40.57220 | -91.82198 | 34765 ft | 504 kts | 155° |
| 2026-05-05 04:05 | 40.51146 | -91.77545 | 34762 ft | 505 kts | 155° |
| 2026-05-05 04:06 | 40.45073 | -91.72907 | 34775 ft | 506 kts | 155° |
| 2026-05-05 04:06 | 40.38982 | -91.68264 | 34764 ft | 504 kts | 155° |
| 2026-05-05 04:07 | 40.32930 | -91.63658 | 34475 ft | 501 kts | 155° |
| 2026-05-05 04:07 | 40.29924 | -91.61374 | 33892 ft | 500 kts | 154° |
| 2026-05-05 04:07 | 40.26938 | -91.59110 | 33390 ft | 500 kts | 154° |
| 2026-05-05 04:08 | 40.23926 | -91.56827 | 32881 ft | 505 kts | 154° |
| 2026-05-05 04:08 | 40.20862 | -91.54506 | 32369 ft | 506 kts | 154° |
| 2026-05-05 04:08 | 40.17815 | -91.52203 | 31871 ft | 507 kts | 154° |
| 2026-05-05 04:08 | 40.14783 | -91.49912 | 31373 ft | 507 kts | 154° |
| 2026-05-05 04:09 | 40.11743 | -91.47618 | 30867 ft | 508 kts | 154° |
| 2026-05-05 04:09 | 40.08691 | -91.45318 | 30359 ft | 507 kts | 154° |
| 2026-05-05 04:09 | 40.05648 | -91.43022 | 29848 ft | 511 kts | 154° |
| 2026-05-05 04:09 | 40.02565 | -91.40701 | 29327 ft | 510 kts | 154° |
| 2026-05-05 04:10 | 39.99476 | -91.38379 | 28768 ft | 511 kts | 154° |
| 2026-05-05 04:10 | 39.96412 | -91.36089 | 27982 ft | 515 kts | 154° |
| 2026-05-05 04:10 | 39.93316 | -91.33759 | 27193 ft | 515 kts | 154° |
| 2026-05-05 04:10 | 39.90199 | -91.31426 | 26393 ft | 513 kts | 154° |
| 2026-05-05 04:11 | 39.87080 | -91.29094 | 25615 ft | 519 kts | 154° |
| 2026-05-05 04:11 | 39.83965 | -91.26765 | 24844 ft | 519 kts | 154° |
| 2026-05-05 04:11 | 39.80864 | -91.24441 | 24058 ft | 515 kts | 154° |
| 2026-05-05 04:11 | 39.77781 | -91.22138 | 23162 ft | 506 kts | 154° |
| 2026-05-05 04:12 | 39.74817 | -91.19738 | 22291 ft | 502 kts | 152° |
| 2026-05-05 04:12 | 39.71888 | -91.17344 | 21504 ft | 492 kts | 152° |
| 2026-05-05 04:12 | 39.69040 | -91.15015 | 20819 ft | 488 kts | 152° |
| 2026-05-05 04:12 | 39.66160 | -91.12663 | 20104 ft | 483 kts | 151° |
| 2026-05-05 04:13 | 39.63338 | -91.10365 | 19392 ft | 478 kts | 151° |
| 2026-05-05 04:13 | 39.60577 | -91.08112 | 18689 ft | 470 kts | 151° |
| 2026-05-05 04:13 | 39.57817 | -91.05865 | 17982 ft | 465 kts | 152° |
| 2026-05-05 04:13 | 39.55078 | -91.03638 | 17285 ft | 462 kts | 151° |
| 2026-05-05 04:14 | 39.52396 | -91.01457 | 16578 ft | 456 kts | 152° |
| 2026-05-05 04:14 | 39.49721 | -90.99288 | 15880 ft | 453 kts | 152° |
| 2026-05-05 04:14 | 39.47055 | -90.97125 | 15164 ft | 448 kts | 152° |
| 2026-05-05 04:14 | 39.44456 | -90.95026 | 14475 ft | 444 kts | 152° |
| 2026-05-05 04:15 | 39.41854 | -90.92931 | 13768 ft | 424 kts | 154° |
| 2026-05-05 04:15 | 39.39488 | -90.91051 | 13034 ft | 384 kts | 151° |
| 2026-05-05 04:15 | 39.37314 | -90.89267 | 12286 ft | 356 kts | 152° |
| 2026-05-05 04:15 | 39.35286 | -90.87620 | 11545 ft | 335 kts | 153° |
| 2026-05-05 04:16 | 39.33372 | -90.86073 | 10821 ft | 321 kts | 153° |
| 2026-05-05 04:16 | 39.31510 | -90.84572 | 10121 ft | 312 kts | 153° |
| 2026-05-05 04:16 | 39.29552 | -90.83559 | 9758 ft | 298 kts | 172° |
| 2026-05-05 04:16 | 39.27534 | -90.82913 | 9733 ft | 300 kts | 172° |
| 2026-05-05 04:17 | 39.25487 | -90.82260 | 9551 ft | 306 kts | 172° |
| 2026-05-05 04:17 | 39.23450 | -90.81618 | 9223 ft | 303 kts | 172° |
| 2026-05-05 04:17 | 39.21411 | -90.80976 | 8878 ft | 299 kts | 172° |
| 2026-05-05 04:17 | 39.19388 | -90.80301 | 8540 ft | 298 kts | 171° |
| 2026-05-05 04:18 | 39.17401 | -90.79614 | 8203 ft | 296 kts | 170° |
| 2026-05-05 04:18 | 39.15416 | -90.78932 | 7861 ft | 296 kts | 170° |
| 2026-05-05 04:18 | 39.13428 | -90.78242 | 7513 ft | 294 kts | 169° |
| 2026-05-05 04:18 | 39.11463 | -90.77537 | 7175 ft | 293 kts | 169° |
| 2026-05-05 04:19 | 39.09517 | -90.76836 | 6827 ft | 282 kts | 169° |
| 2026-05-05 04:19 | 39.07688 | -90.76173 | 6403 ft | 267 kts | 170° |
| 2026-05-05 04:19 | 39.05905 | -90.75532 | 5959 ft | 267 kts | 170° |
| 2026-05-05 04:19 | 39.04118 | -90.74889 | 5509 ft | 265 kts | 170° |
| 2026-05-05 04:20 | 39.02365 | -90.74263 | 5072 ft | 262 kts | 170° |
| 2026-05-05 04:20 | 39.00611 | -90.73630 | 4628 ft | 261 kts | 170° |
| 2026-05-05 04:20 | 38.98866 | -90.72998 | 4185 ft | 258 kts | 171° |
| 2026-05-05 04:20 | 38.97148 | -90.72379 | 3732 ft | 257 kts | 170° |
| 2026-05-05 04:21 | 38.95448 | -90.71720 | 3285 ft | 256 kts | 162° |
| 2026-05-05 04:21 | 38.93983 | -90.70435 | 2884 ft | 257 kts | 142° |
| 2026-05-05 04:21 | 38.92733 | -90.68816 | 2787 ft | 256 kts | 137° |
| 2026-05-05 04:21 | 38.91540 | -90.67113 | 2739 ft | 245 kts | 136° |
| 2026-05-05 04:22 | 38.90466 | -90.65512 | 2730 ft | 236 kts | 136° |
| 2026-05-05 04:22 | 38.89405 | -90.63930 | 2744 ft | 235 kts | 137° |
| 2026-05-05 04:22 | 38.88329 | -90.62318 | 2739 ft | 236 kts | 136° |
| 2026-05-05 04:22 | 38.87249 | -90.60747 | 2758 ft | 234 kts | 140° |
| 2026-05-05 04:23 | 38.86167 | -90.59171 | 2718 ft | 237 kts | 134° |
| 2026-05-05 04:23 | 38.85169 | -90.57464 | 2666 ft | 238 kts | 131° |
| 2026-05-05 04:23 | 38.84236 | -90.55712 | 2614 ft | 240 kts | 129° |
| 2026-05-05 04:23 | 38.83321 | -90.53921 | 2568 ft | 238 kts | 129° |
| 2026-05-05 04:24 | 38.82438 | -90.52157 | 2522 ft | 237 kts | 127° |
| 2026-05-05 04:24 | 38.81561 | -90.50374 | 2421 ft | 225 kts | 129° |
| 2026-05-05 04:24 | 38.80793 | -90.48811 | 2247 ft | 199 kts | 129° |
| 2026-05-05 04:25 | 38.79305 | -90.45817 | 1910 ft | 199 kts | 129° |
| 2026-05-05 04:25 | 38.78613 | -90.44407 | 1678 ft | 175 kts | 130° |
| 2026-05-05 04:25 | 38.78028 | -90.43210 | 1480 ft | 145 kts | 131° |
| 2026-05-05 04:25 | 38.77512 | -90.42178 | 1305 ft | 135 kts | 131° |
| 2026-05-05 04:26 | 38.76997 | -90.41143 | 1175 ft | 138 kts | 130° |
| 2026-05-05 04:26 | 38.76487 | -90.40123 | 987 ft | 136 kts | 129° |
| 2026-05-05 04:26 | 38.75977 | -90.39091 | 822 ft | 136 kts | 128° |
| 2026-05-05 04:26 | 38.75480 | -90.38084 | 650 ft | 133 kts | 128° |
| 2026-05-05 04:27 | 38.75018 | -90.37144 | 539 ft | 115 kts | 127° |
| 2026-05-05 04:27 | 38.74656 | -90.36435 | 541 ft | 71 kts | 123° |
| 2026-05-05 04:27 | 38.74498 | -90.36108 | 544 ft | 24 kts | 122° |
| 2026-05-05 04:27 | 38.74388 | -90.35899 | 544 ft | 31 kts | 125° |
| 2026-05-05 04:28 | 38.74251 | -90.35806 | 544 ft | 21 kts | 214° |
| 2026-05-05 04:28 | 38.74134 | -90.35796 | 544 ft | 24 kts | 120° |
| 2026-05-05 04:28 | 38.74034 | -90.35620 | 545 ft | 23 kts | 152° |
| 2026-05-05 04:28 | 38.73908 | -90.35535 | 547 ft | 20 kts | 127° |
| 2026-05-05 04:29 | 38.73853 | -90.35503 | 547 ft | 7 kts | 220° |
| 2026-05-05 04:29 | 38.73817 | -90.35536 | 548 ft | 5 kts | 211° |
| 2026-05-05 04:29 | 38.73802 | -90.35548 | 548 ft | 0 kts | 210° |